Millry, Alabama
Current Conditions -  °F | °C
As of 8:58 AM on Wednesday 22 Oct 2014 (Local Time) from KMEI Reporting Station
Clear Clear  
Wind Chill: 57°   Ceiling: Unl
Heat Index: 57°   Visibility: 10mi
Dew Point: 50°   Wind: 9mph
Humidity: 77%   Direction: 60°ENE
Pressure: 30.16"   Gusts: NA
Location:  31.63°N, 88.31°W
Report Text: KMEI 221358Z 06008KT 10SM CLR 14/10 A3016 RMK AO2 SLP211 T01390100
Loading
Personal Weather Stations






























Interactive Weather Map
Tropical Storm Tracking
New forecast layout! Learn more

10-Day Weather Forecast

Advertisements
Track Severe Weather on mobile